Time;durP1;ratioP1;P1;durP2;ratioP2;P2;SDS_P1;SDS_P2;PMS_P1;PMS_P2;Temp;Humidity;BMP_temperature;BMP_pressure;BME280_temperature;BME280_humidity;BME280_pressure;Samples;Min_cycle;Max_cycle;Signal;HPM_P1;HPM_P2
2022/01/14 00:00:09;;;;;;;47.47;22.92;;;;;;;9.80;57.74;102726.84;4931483;28;96752;-74
2022/01/14 00:02:35;;;;;;;46.85;22.33;;;;;;;9.85;56.72;102718.91;4932371;28;97237;-76
2022/01/14 00:05:02;;;;;;;51.80;23.25;;;;;;;9.55;58.44;102725.97;4929873;28;99439;-74
2022/01/14 00:07:29;;;;;;;47.67;21.92;;;;;;;9.71;57.92;102728.63;4939021;28;101796;-74
2022/01/14 00:09:55;;;;;;;50.15;23.85;;;;;;;10.21;56.03;102720.66;4931300;28;96770;-75
2022/01/14 00:12:26;;;;;;;44.58;20.92;;;;;;;9.78;57.61;102725.97;4927720;28;97016;-74
2022/01/14 00:15:11;;;;;;;41.28;22.25;;;;;;;9.65;58.47;102718.94;4932874;28;99525;-73
2022/01/14 00:17:37;;;;;;;48.17;22.67;;;;;;;9.76;57.71;102725.09;4935919;28;99358;-75
2022/01/14 00:20:05;;;;;;;50.30;21.85;;;;;;;9.83;57.45;102724.22;4932920;28;96861;-75
2022/01/14 00:22:32;;;;;;;51.25;23.30;;;;;;;9.55;58.93;102725.09;4932564;28;96705;-76
2022/01/14 00:33:16;;;;;;;54.45;22.67;;;;;;;9.61;57.65;102717.19;4933522;28;96686;-74
2022/01/14 00:35:43;;;;;;;49.60;23.05;;;;;;;9.87;57.19;102720.69;4933463;28;99053;-75
2022/01/14 00:38:11;;;;;;;42.63;21.15;;;;;;;9.68;57.59;102718.94;4924269;28;99224;-74
2022/01/14 00:40:38;;;;;;;44.08;21.55;;;;;;;9.92;57.53;102720.66;4927845;28;97164;-74
2022/01/14 00:43:05;;;;;;;43.75;22.92;;;;;;;9.50;58.59;102722.47;4931423;28;96926;-75
2022/01/14 00:45:31;;;;;;;46.85;22.13;;;;;;;9.60;59.07;102716.31;4925641;28;99116;-74
2022/01/14 00:47:59;;;;;;;48.17;21.25;;;;;;;9.77;57.96;102718.94;4929866;28;98969;-75
2022/01/14 00:50:25;;;;;;;50.47;22.30;;;;;;;9.44;57.62;102725.13;4929559;28;97152;-74
2022/01/14 00:52:52;;;;;;;51.92;22.02;;;;;;;9.95;57.75;102733.88;4935973;28;98760;-74
2022/01/14 00:55:27;;;;;;;52.92;22.23;;;;;;;9.81;57.35;102723.34;4929655;28;99370;-74
2022/01/14 01:00:37;;;;;;;48.30;21.67;;;;;;;10.16;57.60;102723.28;4935517;28;97915;-75
2022/01/14 01:03:04;;;;;;;47.45;22.10;;;;;;;10.18;56.88;102723.28;4934432;28;96828;-75
2022/01/14 01:05:31;;;;;;;41.80;20.92;;;;;;;10.47;55.91;102720.56;4943144;28;99169;-75
2022/01/14 01:08:04;;;;;;;46.25;21.63;;;;;;;10.25;56.71;102719.75;4946390;28;97839;-74
2022/01/14 01:10:33;;;;;;;52.90;21.65;;;;;;;10.18;56.20;102708.31;4931817;28;96797;-74
2022/01/14 01:13:05;;;;;;;46.83;22.38;;;;;;;10.39;55.95;102712.66;4933418;28;96894;-73
2022/01/14 01:15:32;;;;;;;42.13;21.45;;;;;;;10.24;55.99;102708.28;4934234;28;99208;-75
2022/01/14 01:17:58;;;;;;;45.95;22.73;;;;;;;9.65;58.74;102718.06;4930627;28;99353;-75
2022/01/14 01:20:24;;;;;;;52.17;22.40;;;;;;;9.94;57.89;102709.22;4928051;28;97221;-74
2022/01/14 01:22:54;;;;;;;47.05;21.75;;;;;;;9.65;58.30;102713.66;4929621;28;96899;-77
2022/01/14 01:25:24;;;;;;;38.42;21.00;;;;;;;10.03;58.45;102715.38;4935051;28;99274;-74
2022/01/14 01:27:54;;;;;;;51.92;21.45;;;;;;;10.26;56.54;102711.81;4941820;28;99290;-73
2022/01/14 01:30:49;;;;;;;47.42;21.35;;;;;;;10.06;58.02;102707.44;4930978;28;98681;-74
2022/01/14 01:33:16;;;;;;;45.47;21.35;;;;;;;10.26;56.12;102700.38;4932762;28;99470;-75
2022/01/14 01:35:43;;;;;;;53.00;21.50;;;;;;;10.49;56.10;102709.13;4932413;28;98022;-73
2022/01/14 01:38:15;;;;;;;53.33;22.88;;;;;;;10.63;55.67;102709.91;4933093;28;98949;-73
2022/01/14 01:40:42;;;;;;;59.45;22.48;;;;;;;10.23;57.25;102716.25;4935134;28;96772;-74
2022/01/14 01:43:11;;;;;;;48.42;22.05;;;;;;;10.28;57.23;102701.25;4935930;28;96952;-74
2022/01/14 01:45:38;;;;;;;44.88;21.35;;;;;;;10.62;55.81;102702.00;4922500;28;99534;-74
2022/01/14 01:48:05;;;;;;;45.90;21.10;;;;;;;10.61;55.92;102701.13;4927983;28;98847;-74
2022/01/14 01:50:32;;;;;;;46.92;21.63;;;;;;;9.89;57.89;102691.63;4931650;28;96626;-74
2022/01/14 01:52:59;;;;;;;43.88;21.85;;;;;;;10.06;57.63;102694.22;4924341;28;96805;-75
2022/01/14 01:55:25;;;;;;;55.38;22.45;;;;;;;10.23;56.60;102697.75;4932648;28;99078;-74
2022/01/14 01:57:53;;;;;;;50.53;22.50;;;;;;;10.20;57.17;102697.75;4937369;28;99217;-76
2022/01/14 02:00:25;;;;;;;46.40;21.98;;;;;;;10.44;56.22;102687.09;4930728;28;97308;-75
2022/01/14 02:02:53;;;;;;;51.78;23.15;;;;;;;10.41;56.49;102695.03;4932104;28;97469;-73
2022/01/14 02:05:20;;;;;;;54.85;23.02;;;;;;;10.50;56.05;102691.50;4929057;28;99088;-74
2022/01/14 02:07:46;;;;;;;53.90;22.60;;;;;;;10.37;56.47;102695.94;4934015;28;99339;-74
2022/01/14 02:10:13;;;;;;;47.95;23.38;;;;;;;10.48;56.25;102690.59;4929726;28;97203;-73
2022/01/14 02:12:48;;;;;;;51.70;22.15;;;;;;;10.35;56.74;102690.66;4927710;28;97227;-74
2022/01/14 02:15:28;;;;;;;50.17;22.85;;;;;;;10.45;56.54;102699.41;4923883;28;99142;-74
2022/01/14 02:18:28;;;;;;;61.47;24.20;;;;;;;10.17;56.60;102701.31;4932113;28;99144;-74
2022/01/14 02:23:39;;;;;;;53.92;23.60;;;;;;;10.19;57.75;102696.88;4929978;28;97097;-73
2022/01/14 02:26:05;;;;;;;55.47;23.73;;;;;;;9.83;58.24;102699.56;4941364;28;99143;-74
2022/01/14 02:28:32;;;;;;;56.45;24.20;;;;;;;10.32;57.48;102692.41;4927427;28;99576;-75
2022/01/14 02:30:58;;;;;;;58.47;24.65;;;;;;;10.29;57.18;102692.44;4933404;28;96856;-73
2022/01/14 02:33:25;;;;;;;56.13;24.25;;;;;;;10.52;56.45;102687.94;4931896;28;96969;-72
2022/01/14 02:35:54;;;;;;;58.33;24.10;;;;;;;10.49;56.99;102685.31;4929943;28;99146;-74
2022/01/14 02:38:20;;;;;;;54.58;23.70;;;;;;;10.40;57.34;102674.78;4932321;28;99176;-74
2022/01/14 02:40:48;;;;;;;65.55;25.10;;;;;;;10.36;57.36;102673.03;4926398;28;96649;-75
2022/01/14 02:43:16;;;;;;;55.17;23.88;;;;;;;10.59;57.22;102665.88;4930622;28;96836;-74
2022/01/14 02:45:47;;;;;;;53.53;26.08;;;;;;;10.16;58.42;102669.56;4931731;28;99361;-75
2022/01/14 02:48:13;;;;;;;63.55;24.15;;;;;;;10.24;57.70;102662.53;4923537;28;99094;-75
2022/01/14 02:50:43;;;;;;;68.45;26.90;;;;;;;10.24;58.44;102660.72;4931799;28;97149;-73
2022/01/14 02:53:25;;;;;;;55.78;23.98;;;;;;;10.31;57.77;102664.22;4941557;28;96725;-75
2022/01/14 02:55:54;;;;;;;65.85;26.23;;;;;;;10.36;58.15;102657.19;4940169;28;98923;-74
2022/01/14 02:58:22;;;;;;;65.80;26.27;;;;;;;10.37;57.85;102643.09;4938831;28;99375;-74
2022/01/14 03:00:51;;;;;;;58.30;26.15;;;;;;;10.27;57.79;102649.28;4938408;28;97104;-73
2022/01/14 03:03:22;;;;;;;57.60;25.08;;;;;;;10.36;58.27;102650.16;4930844;28;97677;-73
2022/01/14 03:05:49;;;;;;;60.85;26.02;;;;;;;10.49;57.77;102652.72;4937367;28;98978;-73
2022/01/14 03:08:17;;;;;;;62.78;25.25;;;;;;;10.43;57.24;102643.06;4938270;28;99472;-74
2022/01/14 03:10:45;;;;;;;56.45;25.38;;;;;;;10.40;58.09;102658.91;4930861;28;98696;-73
2022/01/14 03:13:11;;;;;;;59.00;25.45;;;;;;;10.08;59.61;102655.50;4933920;28;96848;-74
2022/01/14 03:15:38;;;;;;;60.28;27.70;;;;;;;9.83;60.17;102650.28;4929201;28;99032;-73
2022/01/14 03:18:04;;;;;;;63.72;26.17;;;;;;;10.25;59.52;102638.72;4924830;28;99139;-73
2022/01/14 03:20:49;;;;;;;61.72;28.23;;;;;;;10.32;58.56;102643.09;4933400;28;96827;-74
2022/01/14 03:23:18;;;;;;;65.82;27.50;;;;;;;10.24;59.90;102641.41;4922614;28;96914;-73
2022/01/14 03:25:55;;;;;;;61.15;27.38;;;;;;;10.27;59.51;102636.06;4928139;28;100870;-72
2022/01/14 03:28:23;;;;;;;69.65;27.85;;;;;;;10.42;58.73;102624.56;4928176;28;99251;-72
2022/01/14 03:30:51;;;;;;;73.43;26.65;;;;;;;10.29;60.17;102626.38;4931569;28;98075;-72
2022/01/14 03:33:18;;;;;;;65.90;28.48;;;;;;;10.35;59.87;102627.25;4931323;28;96939;-73
2022/01/14 03:35:45;;;;;;;63.17;27.05;;;;;;;10.24;58.59;102628.19;4939861;28;98355;-74
2022/01/14 03:38:11;;;;;;;59.95;26.45;;;;;;;9.90;61.90;102620.34;4925622;28;99393;-73
2022/01/14 03:40:39;;;;;;;60.58;26.27;;;;;;;9.64;60.79;102614.25;4932351;28;96781;-73
2022/01/14 03:43:05;;;;;;;59.63;27.55;;;;;;;9.89;61.94;102612.41;4932563;28;97255;-74
2022/01/14 03:45:32;;;;;;;65.40;25.75;;;;;;;10.15;61.25;102612.31;4929691;28;98790;-74
2022/01/14 03:47:58;;;;;;;69.97;26.40;;;;;;;10.28;60.46;102607.00;4932582;28;98834;-71
2022/01/14 03:50:27;;;;;;;61.92;25.13;;;;;;;10.17;61.25;102603.56;4932142;28;97031;-75
2022/01/14 03:52:53;;;;;;;63.55;26.20;;;;;;;10.18;60.30;102596.47;4925218;28;98398;-74
2022/01/14 03:55:19;;;;;;;57.40;25.52;;;;;;;10.09;60.90;102589.47;4929016;28;99167;-73
2022/01/14 03:57:47;;;;;;;56.90;25.83;;;;;;;10.06;62.10;102589.47;4933240;28;99093;-73
2022/01/14 04:00:15;;;;;;;52.60;24.75;;;;;;;10.22;61.08;102585.91;4937936;28;96724;-75
2022/01/14 04:02:41;;;;;;;59.38;24.77;;;;;;;9.86;61.53;102592.16;4926116;28;97235;-74
2022/01/14 04:05:09;;;;;;;53.40;25.00;;;;;;;10.31;60.90;102582.31;4930914;28;98969;-73
2022/01/14 04:07:35;;;;;;;58.15;24.63;;;;;;;9.95;61.46;102591.28;4928496;28;101135;-73
2022/01/14 04:10:02;;;;;;;50.63;24.38;;;;;;;10.04;61.32;102582.44;4930071;28;96752;-73
2022/01/14 04:12:44;;;;;;;53.78;23.63;;;;;;;9.98;61.64;102576.28;4931295;28;96701;-75
2022/01/14 04:17:59;;;;;;;51.22;24.65;;;;;;;10.08;62.06;102569.22;4929052;28;96974;-73
2022/01/14 04:20:26;;;;;;;50.03;21.42;;;;;;;9.90;62.32;102574.56;4931975;28;96800;-74
2022/01/14 04:22:53;;;;;;;49.00;23.52;;;;;;;9.77;61.64;102576.38;4931472;28;96979;-74
2022/01/14 04:25:20;;;;;;;55.33;24.33;;;;;;;9.87;63.28;102571.94;4937889;28;98070;-74
2022/01/14 04:27:46;;;;;;;45.55;23.60;;;;;;;9.71;63.88;102581.69;4935710;28;97982;-73
2022/01/14 04:30:15;;;;;;;51.08;24.15;;;;;;;9.68;62.75;102576.41;4935619;28;97107;-73
2022/01/14 04:32:41;;;;;;;50.08;23.50;;;;;;;9.58;65.07;102572.88;4933307;28;96815;-73
2022/01/14 04:35:08;;;;;;;56.83;24.98;;;;;;;10.02;62.67;102565.72;4930779;28;97598;-74
2022/01/14 04:37:35;;;;;;;44.60;22.02;;;;;;;9.90;63.59;102575.44;4934560;28;99044;-75
2022/01/14 04:40:02;;;;;;;48.10;24.60;;;;;;;9.78;63.59;102571.97;4927553;28;96810;-74
2022/01/14 04:42:29;;;;;;;58.75;25.13;;;;;;;9.41;64.20;102561.50;4935416;28;96773;-74
2022/01/14 04:44:56;;;;;;;54.28;24.95;;;;;;;9.74;63.34;102563.19;4931077;28;98987;-74
2022/01/14 04:47:32;;;;;;;48.15;22.83;;;;;;;9.96;62.84;102561.34;4933888;28;98907;-74
2022/01/14 04:49:59;;;;;;;51.55;23.35;;;;;;;10.28;61.55;102558.56;4931918;28;96814;-74
2022/01/14 04:52:26;;;;;;;51.20;23.23;;;;;;;10.16;61.84;102543.63;4932554;28;96849;-75
2022/01/14 04:54:53;;;;;;;51.33;24.05;;;;;;;10.21;61.67;102539.22;4934405;28;98994;-75
2022/01/14 04:57:21;;;;;;;48.70;23.25;;;;;;;10.09;61.39;102531.34;4932398;28;99117;-74
2022/01/14 04:59:48;;;;;;;54.80;24.67;;;;;;;9.32;64.87;102527.22;4938598;28;97401;-74
2022/01/14 05:02:15;;;;;;;55.20;24.23;;;;;;;9.76;64.14;102527.09;4934921;28;97540;-74
2022/01/14 05:04:44;;;;;;;48.78;24.60;;;;;;;9.99;62.41;102522.56;4936172;28;98984;-74
2022/01/14 05:07:15;;;;;;;48.60;23.63;;;;;;;9.99;61.05;102525.22;4930603;28;98941;-75
2022/01/14 05:09:46;;;;;;;47.08;23.88;;;;;;;9.89;63.10;102530.56;4931026;28;96860;-74
2022/01/14 05:12:12;;;;;;;54.10;23.85;;;;;;;9.83;62.31;102538.50;4931457;28;96852;-75
2022/01/14 05:14:39;;;;;;;45.28;20.92;;;;;;;9.58;62.72;102535.09;4927889;28;99382;-73
2022/01/14 05:17:05;;;;;;;44.03;23.00;;;;;;;9.87;63.60;102529.69;4932168;28;99205;-74
2022/01/14 05:19:32;;;;;;;49.20;24.60;;;;;;;9.93;63.62;102524.38;4936047;28;96849;-74
2022/01/14 05:21:59;;;;;;;51.20;22.90;;;;;;;10.08;61.96;102523.44;4936001;28;96896;-74
2022/01/14 05:24:26;;;;;;;47.10;23.00;;;;;;;9.99;61.90;102526.97;4920681;28;99272;-75
2022/01/14 05:26:52;;;;;;;49.92;23.55;;;;;;;9.56;63.83;102523.66;4934249;28;98360;-75
2022/01/14 05:29:19;;;;;;;48.78;23.77;;;;;;;9.53;63.96;102518.38;4932500;28;97904;-76
2022/01/14 05:31:47;;;;;;;44.33;23.23;;;;;;;9.81;63.37;102522.66;4932739;28;98693;-75
2022/01/14 05:34:13;;;;;;;54.20;23.98;;;;;;;9.78;61.61;102525.31;4942318;28;97743;-75
2022/01/14 05:36:40;;;;;;;48.30;25.13;;;;;;;9.77;63.64;102523.59;4935696;28;99088;-76
2022/01/14 05:39:09;;;;;;;53.00;23.77;;;;;;;9.60;62.91;102525.38;4932899;28;97080;-77
2022/01/14 05:41:35;;;;;;;50.33;24.77;;;;;;;9.58;63.65;102522.75;4930446;28;96999;-75
2022/01/14 05:44:03;;;;;;;49.35;24.65;;;;;;;9.66;64.15;102533.28;4935849;28;99150;-74
2022/01/14 05:46:29;;;;;;;62.42;26.48;;;;;;;9.83;63.53;102535.88;4950124;28;98064;-75
2022/01/14 05:48:56;;;;;;;55.63;24.73;;;;;;;10.16;62.17;102516.34;4952649;28;96740;-76
2022/01/14 05:51:22;;;;;;;51.75;24.40;;;;;;;9.65;61.59;102518.31;4942784;28;98891;-75
2022/01/14 05:53:48;;;;;;;63.03;24.50;;;;;;;10.02;62.63;102515.53;4932594;28;99254;-76
2022/01/14 05:56:16;;;;;;;61.15;26.17;;;;;;;9.72;62.63;102504.22;4932003;28;99299;-75
2022/01/14 05:58:42;;;;;;;53.72;24.42;;;;;;;9.60;63.60;102507.78;4931796;28;97116;-74
2022/01/14 06:01:09;;;;;;;55.58;26.90;;;;;;;9.63;63.34;102509.56;4931809;28;96882;-74
2022/01/14 06:03:35;;;;;;;53.72;25.63;;;;;;;9.97;62.26;102500.59;4932235;28;99021;-74
2022/01/14 06:06:01;;;;;;;58.22;26.27;;;;;;;9.77;61.64;102505.09;4932388;28;99040;-75
2022/01/14 06:08:28;;;;;;;56.55;26.55;;;;;;;10.00;61.60;102521.69;4931734;28;96946;-74
2022/01/14 06:10:54;;;;;;;69.00;27.50;;;;;;;10.05;61.42;102503.19;4932404;28;96903;-75
2022/01/14 06:13:22;;;;;;;67.60;29.08;;;;;;;9.91;61.72;102505.88;4931172;28;100683;-74
2022/01/14 06:15:48;;;;;;;71.07;31.45;;;;;;;10.09;60.74;102497.00;4929491;28;98963;-74
2022/01/14 06:18:14;;;;;;;70.28;31.38;;;;;;;10.31;60.86;102500.41;4943408;28;96799;-75
2022/01/14 06:20:41;;;;;;;77.22;30.88;;;;;;;10.20;60.34;102497.84;4942962;28;96925;-74
2022/01/14 06:23:07;;;;;;;81.18;32.25;;;;;;;9.91;61.36;102502.41;4928511;28;99311;-74
2022/01/14 06:25:33;;;;;;;79.20;33.50;;;;;;;9.55;61.23;102496.38;4931834;28;99065;-73
2022/01/14 06:28:00;;;;;;;80.50;33.38;;;;;;;9.81;61.68;102498.91;4935887;28;96796;-74
2022/01/14 06:30:27;;;;;;;88.38;32.80;;;;;;;9.63;61.03;102504.28;4938056;28;96911;-75
2022/01/14 06:32:56;;;;;;;89.93;34.03;;;;;;;9.62;61.89;102507.78;4928319;28;98926;-75
2022/01/14 06:35:23;;;;;;;88.65;35.33;;;;;;;9.58;61.88;102516.63;4927839;28;98861;-74
2022/01/14 06:37:50;;;;;;;91.05;33.50;;;;;;;9.41;62.66;102526.31;4933758;28;97897;-74
2022/01/14 06:40:17;;;;;;;91.82;34.65;;;;;;;9.43;62.65;102524.56;4931489;28;97571;-74
2022/01/14 06:42:43;;;;;;;85.78;33.92;;;;;;;9.50;62.84;102526.31;4933513;28;99298;-74
2022/01/14 06:45:11;;;;;;;87.13;34.58;;;;;;;9.41;62.77;102532.47;4938849;28;98869;-74
2022/01/14 06:47:39;;;;;;;87.65;34.42;;;;;;;9.33;62.51;102536.00;4936642;28;96840;-74
2022/01/14 06:50:05;;;;;;;83.85;32.17;;;;;;;9.40;61.98;102537.75;4943752;28;96794;-73
2022/01/14 06:52:32;;;;;;;89.63;33.17;;;;;;;9.18;62.89;102548.38;4927765;28;101484;-75
2022/01/14 06:54:58;;;;;;;80.50;33.28;;;;;;;9.55;62.25;102549.16;4945062;28;97192;-74
2022/01/14 06:57:25;;;;;;;83.40;30.92;;;;;;;9.31;62.25;102536.03;4935591;28;96743;-74
2022/01/14 06:59:51;;;;;;;76.22;32.65;;;;;;;9.54;61.45;102551.78;4925185;28;96912;-75
2022/01/14 07:02:18;;;;;;;77.63;32.28;;;;;;;9.69;61.15;102557.03;4931229;28;99566;-73
2022/01/14 07:04:46;;;;;;;68.90;29.42;;;;;;;9.36;61.37;102562.41;4929291;28;99119;-74
2022/01/14 07:07:12;;;;;;;73.50;28.35;;;;;;;9.51;61.58;102554.47;4937154;28;96834;-74
2022/01/14 07:09:55;;;;;;;69.97;29.05;;;;;;;9.19;61.78;102546.56;4937025;28;97439;-76
2022/01/14 07:12:22;;;;;;;73.13;28.80;;;;;;;9.63;59.89;102543.88;4924165;28;98838;-74
2022/01/14 07:14:48;;;;;;;72.28;29.65;;;;;;;9.96;59.90;102538.47;4947988;28;100096;-74
2022/01/14 07:17:14;;;;;;;57.55;26.10;;;;;;;10.27;58.49;102535.69;4939308;28;97702;-75
2022/01/14 07:19:41;;;;;;;68.45;26.92;;;;;;;10.18;57.90;102535.72;4925684;28;97459;-74
2022/01/14 07:22:08;;;;;;;65.60;26.48;;;;;;;10.00;59.09;102531.38;4927272;28;99131;-74
2022/01/14 07:24:36;;;;;;;69.15;25.52;;;;;;;10.16;58.62;102538.34;4963040;22;98949;-75
2022/01/14 07:27:03;;;;;;;62.28;25.48;;;;;;;9.92;59.05;102523.50;4947450;28;97508;-75
2022/01/14 07:29:29;;;;;;;62.67;27.25;;;;;;;10.06;59.04;102520.78;4950711;28;97586;-73
2022/01/14 07:31:55;;;;;;;62.95;25.83;;;;;;;10.06;58.89;102511.97;4951756;28;99631;-74
2022/01/14 07:34:25;;;;;;;56.83;24.88;;;;;;;10.07;58.46;102519.03;4942047;28;99229;-81
2022/01/14 07:36:51;;;;;;;60.17;24.52;;;;;;;9.87;59.31;102538.47;4930081;28;96888;-74
2022/01/14 07:39:19;;;;;;;64.47;25.40;;;;;;;10.12;58.33;102528.66;4931372;28;97737;-74
2022/01/14 07:41:46;;;;;;;59.67;25.02;;;;;;;10.11;58.96;102528.72;4934203;28;99377;-74
2022/01/14 07:44:15;;;;;;;61.28;25.15;;;;;;;9.94;59.31;102516.44;4932263;28;98665;-76
2022/01/14 07:46:42;;;;;;;66.60;25.13;;;;;;;9.99;58.62;102525.22;4941494;28;96799;-77
2022/01/14 07:49:08;;;;;;;50.67;22.35;;;;;;;9.88;58.96;102527.03;4929806;28;98782;-75
2022/01/14 07:51:35;;;;;;;49.63;22.50;;;;;;;9.88;59.15;102523.53;4934004;28;98309;-78
2022/01/14 07:54:05;;;;;;;58.05;23.70;;;;;;;9.96;59.97;102519.09;4929919;28;99403;-75
2022/01/14 07:56:37;;;;;;;51.00;23.33;;;;;;;9.96;60.09;102519.09;4933741;28;97774;-77
2022/01/14 07:59:04;;;;;;;65.97;23.75;;;;;;;10.05;59.41;102515.50;4936418;28;97380;-78
2022/01/14 08:01:33;;;;;;;53.47;23.48;;;;;;;9.87;59.96;102524.41;4931873;28;100928;-79
2022/01/14 08:04:04;;;;;;;52.25;22.42;;;;;;;10.00;58.48;102516.41;4931766;28;101473;-78
2022/01/14 08:06:36;;;;;;;47.10;21.48;;;;;;;10.21;58.96;102525.16;4935750;28;96907;-76
2022/01/14 08:09:03;;;;;;;49.10;22.35;;;;;;;9.83;59.99;102507.72;4936776;28;97974;-77
2022/01/14 08:11:30;;;;;;;49.92;22.05;;;;;;;10.17;59.12;102515.50;4945665;28;97699;-79
2022/01/14 08:14:01;;;;;;;53.88;22.35;;;;;;;10.29;58.54;102512.78;4945114;28;102124;-78
2022/01/14 08:16:29;;;;;;;51.13;20.88;;;;;;;10.29;58.32;102513.66;4941519;28;96812;-78
2022/01/14 08:18:58;;;;;;;55.55;22.67;;;;;;;10.19;58.58;102514.56;4944809;28;97027;-79
2022/01/14 08:21:26;;;;;;;49.45;21.40;;;;;;;9.76;60.24;102513.03;4947478;28;99412;-77
2022/01/14 08:23:55;;;;;;;55.47;22.15;;;;;;;9.52;61.19;102516.59;4948620;28;100373;-78
2022/01/14 08:26:21;;;;;;;53.35;22.58;;;;;;;9.27;61.84;102509.63;4940756;28;97946;-79
2022/01/14 08:28:48;;;;;;;49.22;21.85;;;;;;;9.75;61.31;102509.50;4935845;28;97094;-76
2022/01/14 08:31:16;;;;;;;50.40;20.70;;;;;;;9.86;60.88;102512.97;4937570;28;99090;-75
2022/01/14 08:33:46;;;;;;;50.83;21.92;;;;;;;9.47;61.62;102508.72;4932093;28;98087;-75
2022/01/14 08:36:13;;;;;;;47.78;21.85;;;;;;;9.65;61.79;102518.31;4937702;28;97875;-76
2022/01/14 08:38:43;;;;;;;48.25;21.58;;;;;;;9.61;61.44;102524.50;4937452;28;96865;-77
2022/01/14 08:41:09;;;;;;;51.95;23.45;;;;;;;9.89;60.11;102510.31;4939642;28;98160;-74
2022/01/14 08:43:37;;;;;;;54.40;22.13;;;;;;;9.74;61.32;102509.50;4947785;28;100741;-74
2022/01/14 08:46:05;;;;;;;50.70;22.33;;;;;;;10.06;60.73;102504.06;4938493;28;97007;-77
2022/01/14 08:48:32;;;;;;;51.83;22.73;;;;;;;9.70;61.21;102516.56;4939571;28;97134;-77
2022/01/14 08:51:00;;;;;;;57.00;22.98;;;;;;;10.05;60.69;102523.44;4938758;28;100376;-77
2022/01/14 08:53:27;;;;;;;66.85;23.20;;;;;;;9.85;61.59;102508.56;4945880;28;99651;-77
2022/01/14 08:55:53;;;;;;;57.72;22.90;;;;;;;9.70;60.46;102513.03;4953949;28;97815;-77
2022/01/14 08:58:19;;;;;;;51.40;23.25;;;;;;;9.82;60.97;102516.50;4954966;28;97171;-76
2022/01/14 09:00:48;;;;;;;53.38;22.85;;;;;;;10.02;61.25;102519.06;4951064;28;101099;-78
2022/01/14 09:03:16;;;;;;;60.05;23.48;;;;;;;10.24;59.86;102522.50;4941621;28;101860;-78
2022/01/14 09:05:46;;;;;;;55.25;22.15;;;;;;;9.66;60.78;102509.53;4950819;28;97517;-78
2022/01/14 09:08:13;;;;;;;52.40;21.95;;;;;;;9.54;60.71;102494.63;4947179;28;96613;-80
2022/01/14 09:10:40;;;;;;;60.50;24.25;;;;;;;9.58;62.45;102500.78;4944591;28;96897;-78
2022/01/14 09:13:06;;;;;;;58.53;22.30;;;;;;;9.39;62.61;102499.06;4942365;28;100676;-75
2022/01/14 09:15:33;;;;;;;49.95;22.55;;;;;;;9.40;62.77;102496.41;4947752;28;97124;-78
2022/01/14 09:17:59;;;;;;;61.20;21.98;;;;;;;9.81;61.22;102493.63;4945068;28;98129;-78
2022/01/14 09:20:28;;;;;;;52.95;22.92;;;;;;;9.26;62.53;102503.47;4933631;28;99012;-78
2022/01/14 09:22:57;;;;;;;60.17;22.25;;;;;;;9.86;61.15;102483.91;4931835;28;98886;-77
2022/01/14 09:25:29;;;;;;;50.78;21.08;;;;;;;9.83;61.23;102497.16;4932099;28;98695;-80
2022/01/14 09:27:56;;;;;;;52.13;20.60;;;;;;;10.46;59.78;102499.44;4932900;28;97262;-77
2022/01/14 09:30:23;;;;;;;45.42;20.48;;;;;;;10.17;59.35;102497.88;4935823;28;99902;-80
2022/01/14 09:32:56;;;;;;;43.13;18.95;;;;;;;9.80;60.58;102497.16;4947043;28;102664;-78
2022/01/14 09:38:29;;;;;;;;;;;;;;;;;;;;;
2022/01/14 09:41:23;;;;;;;42.50;18.40;;;;;;;10.27;59.86;102491.63;4929753;28;124699;-78
2022/01/14 09:43:49;;;;;;;43.83;19.15;;;;;;;10.11;59.56;102505.78;4921775;28;101715;-79
2022/01/14 09:46:18;;;;;;;44.17;16.55;;;;;;;9.71;59.46;102496.31;4931850;28;96824;-77
2022/01/14 09:51:33;;;;;;;49.35;19.02;;;;;;;9.87;61.06;102504.16;4931051;28;98570;-77
2022/01/14 09:54:16;;;;;;;51.67;20.95;;;;;;;9.64;61.99;102495.47;4944998;28;99063;-78
2022/01/14 09:56:50;;;;;;;44.75;17.52;;;;;;;9.74;59.79;102489.25;4929463;28;97612;-77
2022/01/14 09:59:22;;;;;;;37.05;16.77;;;;;;;10.10;60.12;102476.75;4935749;28;98958;-77
2022/01/14 10:05:34;;;;;;;44.80;17.02;;;;;;;10.30;59.43;102482.81;4935244;28;98987;-76
2022/01/14 10:08:32;;;;;;;36.15;15.85;;;;;;;9.53;60.38;102478.78;4951805;28;96605;-78
2022/01/14 10:11:05;;;;;;;43.05;15.48;;;;;;;9.89;60.95;102473.34;4902444;28;97263;-76
2022/01/14 10:14:15;;;;;;;38.75;16.75;;;;;;;9.47;61.92;102473.53;4939977;28;103584;-76
2022/01/14 10:16:54;;;;;;;44.83;15.80;;;;;;;9.78;60.95;102487.50;4888046;28;100268;-77
2022/01/14 10:19:23;;;;;;;39.92;15.27;;;;;;;10.20;60.94;102482.00;4942773;28;96722;-77
2022/01/14 10:21:51;;;;;;;39.83;14.05;;;;;;;10.22;59.53;102487.28;4938289;28;96860;-77
2022/01/14 10:24:19;;;;;;;35.03;13.57;;;;;;;10.12;60.10;102489.06;4932377;28;99270;-77
2022/01/14 10:27:01;;;;;;;36.42;14.10;;;;;;;10.47;59.83;102494.16;4931784;28;101844;-78
2022/01/14 10:29:31;;;;;;;30.25;13.05;;;;;;;10.64;58.35;102494.88;4930512;28;97741;-75
2022/01/14 10:32:00;;;;;;;35.08;14.23;;;;;;;10.45;58.78;102495.91;4928857;28;96978;-77
2022/01/14 10:34:32;;;;;;;30.65;13.50;;;;;;;10.54;58.02;102487.03;4930215;28;97744;-78
2022/01/14 10:37:21;;;;;;;30.77;12.93;;;;;;;10.69;58.46;102490.44;4937228;28;99024;-77
2022/01/14 10:39:56;;;;;;;39.38;12.88;;;;;;;10.81;57.80;102491.22;4932571;28;97600;-75
2022/01/14 10:42:45;;;;;;;29.13;12.87;;;;;;;10.50;57.86;102490.63;4933794;28;96874;-76
2022/01/14 10:45:22;;;;;;;30.60;11.93;;;;;;;10.08;60.39;102484.69;4935714;28;99344;-75
2022/01/14 10:47:58;;;;;;;29.05;12.52;;;;;;;10.36;58.94;102482.78;4928824;28;98942;-74
2022/01/14 10:50:30;;;;;;;27.10;10.93;;;;;;;10.37;58.83;102481.91;4937892;28;96842;-77
2022/01/14 10:52:57;;;;;;;34.75;11.88;;;;;;;10.60;58.49;102476.41;4941687;28;97062;-74
2022/01/14 10:55:33;;;;;;;31.55;11.43;;;;;;;10.29;59.19;102459.94;4941861;28;99120;-75
2022/01/14 10:58:02;;;;;;;;;;;;;;;10.57;58.19;102458.81;4936956;28;99179;-75
2022/01/14 11:00:29;;;;;;;32.47;11.10;;;;;;;10.48;59.07;102463.31;4938084;28;97065;-74
2022/01/14 11:02:56;;;;;;;35.28;10.45;;;;;;;10.85;57.78;102474.44;4933693;28;96884;-77
2022/01/14 11:05:23;;;;;;;25.58;10.50;;;;;;;10.97;56.64;102474.31;4933378;28;98132;-74
2022/01/14 11:07:52;;;;;;;25.60;10.25;;;;;;;10.81;56.85;102478.88;4931561;28;98793;-74
2022/01/14 11:10:23;;;;;;;20.55;10.23;;;;;;;10.51;58.71;102474.72;4939320;28;96945;-76
2022/01/14 11:12:50;;;;;;;29.27;11.32;;;;;;;10.96;57.83;102475.22;4937597;28;96806;-75
2022/01/14 11:15:20;;;;;;;29.75;10.32;;;;;;;11.21;56.44;102473.19;4935801;28;98748;-75
2022/01/14 11:17:51;;;;;;;27.27;10.80;;;;;;;11.36;56.24;102488.88;4935579;28;98943;-74
2022/01/14 11:20:23;;;;;;;29.90;10.20;;;;;;;10.81;56.49;102499.16;4938922;28;96766;-76
2022/01/14 11:25:39;;;;;;;26.83;9.93;;;;;;;9.97;61.14;102468.91;4933604;28;97148;-74
2022/01/14 11:28:07;;;;;;;26.23;9.32;;;;;;;10.34;59.78;102464.28;4940327;28;100467;-75
2022/01/14 11:30:38;;;;;;;35.30;10.90;;;;;;;10.96;58.12;102467.28;4935576;28;96815;-73
2022/01/14 11:33:06;;;;;;;21.27;8.82;;;;;;;11.01;58.05;102462.81;4934593;28;96806;-74
2022/01/14 11:35:35;;;;;;;33.67;10.50;;;;;;;10.70;58.41;102449.88;4940937;28;98281;-73
2022/01/14 11:38:02;;;;;;;24.73;10.18;;;;;;;10.75;58.17;102450.75;4929976;28;98974;-75
2022/01/14 11:40:49;;;;;;;24.85;9.43;;;;;;;10.16;60.60;102447.66;4937603;28;96856;-73
2022/01/14 11:43:40;;;;;;;20.77;9.55;;;;;;;10.75;59.83;102434.88;4936238;28;97162;-75
2022/01/14 11:46:11;;;;;;;22.17;8.88;;;;;;;10.57;58.56;102440.31;4932198;28;101438;-75
2022/01/14 11:48:43;;;;;;;21.95;9.45;;;;;;;10.46;59.93;102436.00;4930628;28;99135;-75
2022/01/14 11:51:12;;;;;;;23.35;8.90;;;;;;;11.10;57.92;102415.97;4931314;28;96738;-73